createdAt,value
2018-06-10T04:10:07.519Z,99.99
2018-06-10T04:10:33.014Z,99.99
2018-06-10T04:10:58.498Z,99.99
2018-06-10T04:11:23.979Z,99.99
2018-06-10T04:11:49.468Z,99.99
2018-06-10T04:12:14.951Z,99.99
2018-06-10T04:12:40.535Z,99.99
2018-06-10T04:13:06.028Z,99.99
2018-06-10T04:13:31.551Z,99.99
2018-06-10T04:13:57.059Z,99.99
2018-06-10T04:14:22.561Z,99.99
2018-06-10T04:14:48.057Z,99.99
2018-06-10T04:15:13.557Z,99.99
2018-06-10T04:15:39.070Z,99.99
2018-06-10T04:16:04.558Z,99.99
2018-06-10T04:16:30.037Z,99.99
2018-06-10T04:16:55.530Z,99.99
2018-06-10T04:17:21.033Z,99.99
2018-06-10T04:17:46.539Z,99.99
2018-06-10T04:18:12.039Z,99.99
2018-06-10T04:18:37.539Z,99.99
2018-06-10T04:19:03.042Z,99.99
2018-06-10T04:19:28.538Z,99.99
2018-06-10T04:19:54.029Z,99.99
2018-06-10T04:20:19.539Z,99.99
2018-06-10T04:20:45.040Z,99.99
2018-06-10T04:21:10.530Z,99.99
2018-06-10T04:21:36.049Z,99.99
2018-06-10T04:22:35.616Z,99.99
2018-06-10T04:23:01.082Z,99.99
2018-06-10T04:23:26.566Z,99.99
2018-06-10T04:23:52.068Z,99.99
2018-06-10T04:24:17.550Z,99.99
2018-06-10T04:24:43.036Z,99.99
2018-06-10T04:25:08.534Z,99.99
2018-06-10T04:25:34.046Z,99.99
2018-06-10T04:25:59.527Z,99.99
2018-06-10T04:26:25.033Z,99.99
2018-06-10T04:26:50.564Z,99.99
2018-06-10T04:27:16.043Z,99.99
2018-06-10T04:27:41.569Z,99.99
2018-06-10T04:28:07.048Z,99.99
2018-06-10T04:29:20.883Z,99.99
2018-06-10T04:29:46.376Z,99.99
2018-06-10T04:30:11.873Z,99.99
2018-06-10T04:30:37.375Z,99.99
2018-06-10T04:31:02.889Z,99.99
2018-06-10T04:31:28.389Z,99.99
2018-06-10T04:31:53.880Z,99.99
2018-06-10T04:32:19.341Z,99.99
2018-06-10T04:32:44.846Z,99.99
2018-06-10T04:33:10.357Z,99.99
2018-06-10T04:33:35.854Z,99.99
2018-06-10T04:34:01.336Z,99.99
2018-06-10T04:34:26.829Z,99.99
2018-06-10T04:34:52.292Z,99.99
2018-06-10T04:35:17.794Z,99.99
2018-06-10T04:35:43.291Z,99.99
2018-06-10T04:36:08.801Z,99.99
2018-06-10T04:36:34.308Z,99.99
2018-06-10T04:36:59.807Z,99.99
2018-06-10T04:37:25.316Z,99.99
2018-06-10T04:37:50.839Z,99.99
2018-06-10T04:38:16.368Z,99.99
2018-06-10T04:38:41.863Z,99.99
2018-06-10T04:39:07.367Z,99.99
2018-06-10T04:39:32.904Z,99.99
2018-06-10T04:39:58.379Z,99.99
2018-06-10T04:40:23.882Z,99.99
2018-06-10T04:40:49.366Z,99.99
2018-06-10T04:41:14.803Z,99.99
2018-06-10T04:41:40.284Z,99.99
2018-06-10T04:42:05.803Z,99.99
2018-06-10T04:42:31.316Z,99.99
2018-06-10T04:42:56.811Z,99.99
2018-06-10T04:43:22.300Z,99.99
2018-06-10T04:43:47.811Z,99.99
2018-06-10T04:44:13.305Z,99.99
2018-06-10T04:44:38.824Z,99.99
2018-06-10T04:45:04.312Z,99.99
2018-06-10T04:45:29.802Z,99.99
2018-06-10T04:45:55.298Z,99.99
2018-06-10T04:46:20.812Z,99.99
2018-06-10T04:46:46.333Z,99.99
2018-06-10T04:47:11.885Z,99.99
2018-06-10T04:47:37.345Z,99.99
2018-06-10T04:48:02.852Z,99.99
2018-06-10T04:48:28.337Z,99.99
2018-06-10T04:48:53.835Z,99.99
2018-06-10T04:49:19.337Z,99.99
2018-06-10T04:49:44.829Z,99.99
2018-06-10T04:50:10.321Z,99.99
2018-06-10T04:50:35.824Z,99.99
2018-06-10T04:51:01.280Z,99.99
2018-06-10T04:51:26.789Z,99.99
2018-06-10T04:51:52.273Z,99.99
2018-06-10T04:52:17.769Z,99.99
2018-06-10T04:52:43.292Z,99.99
2018-06-10T04:53:08.791Z,99.99
2018-06-10T04:53:34.264Z,99.99
2018-06-10T04:53:59.838Z,99.99
2018-06-10T04:54:25.336Z,99.99
2018-06-10T04:54:50.822Z,99.99
2018-06-10T04:55:16.327Z,99.99
2018-06-10T04:56:09.777Z,99.99
2018-06-10T04:56:35.280Z,99.99
2018-06-10T04:57:00.773Z,99.99
2018-06-10T04:57:26.270Z,99.99
2018-06-10T04:57:51.743Z,99.99
2018-06-10T04:58:17.247Z,99.99
2018-06-10T04:58:42.788Z,99.99
2018-06-10T04:59:08.237Z,99.99
2018-06-10T04:59:33.746Z,99.99
2018-06-10T04:59:59.256Z,99.99
2018-06-10T05:00:24.756Z,99.99
2018-06-10T05:00:50.245Z,99.99
2018-06-10T05:01:15.739Z,99.99
2018-06-10T05:01:41.225Z,99.99
2018-06-10T05:02:06.718Z,99.99
2018-06-10T05:02:32.186Z,99.99
2018-06-10T05:02:57.728Z,99.99
2018-06-10T05:03:23.208Z,99.99
2018-06-10T05:03:48.705Z,99.99
2018-06-10T05:05:02.534Z,99.99
2018-06-10T05:05:28.016Z,99.99
2018-06-10T05:05:53.527Z,99.99
2018-06-10T05:06:19.028Z,99.99
2018-06-10T05:06:44.485Z,99.99
2018-06-10T05:07:09.976Z,99.99
2018-06-10T05:07:35.466Z,99.99
2018-06-10T05:08:00.958Z,99.99
2018-06-10T05:08:26.425Z,99.99
2018-06-10T05:09:35.074Z,99.99
2018-06-10T05:10:00.575Z,99.99
2018-06-10T05:10:26.074Z,99.99
2018-06-10T05:10:51.549Z,99.99
2018-06-10T05:11:17.051Z,99.99
2018-06-10T05:11:42.527Z,99.99
2018-06-10T05:12:08.024Z,99.99
2018-06-10T05:12:33.520Z,99.99
2018-06-10T05:12:59.009Z,99.99
2018-06-10T05:13:24.535Z,99.99
2018-06-10T05:13:50.034Z,99.99
2018-06-10T05:14:15.524Z,99.99
2018-06-10T05:14:41.048Z,99.99
2018-06-10T05:15:06.574Z,99.99
2018-06-10T05:15:32.082Z,99.99
2018-06-10T05:15:57.566Z,99.99
2018-06-10T05:16:23.064Z,99.99
2018-06-10T05:16:48.573Z,99.99
2018-06-10T05:17:14.072Z,99.99
2018-06-10T05:17:39.569Z,99.99
2018-06-10T05:18:05.071Z,99.99
2018-06-10T05:18:30.580Z,99.99
2018-06-10T05:18:56.151Z,99.99
2018-06-10T05:19:21.608Z,99.99
2018-06-10T05:19:47.162Z,99.99
2018-06-10T05:20:12.722Z,99.99
2018-06-10T05:20:38.127Z,99.99
2018-06-10T05:21:03.608Z,99.99
2018-06-10T05:21:29.097Z,99.99
2018-06-10T05:21:54.600Z,99.99
2018-06-10T05:22:58.184Z,99.99
2018-06-10T05:23:23.666Z,99.99
2018-06-10T05:23:49.185Z,99.99
2018-06-10T05:24:14.687Z,99.99
2018-06-10T05:24:40.195Z,99.99
2018-06-10T05:25:05.674Z,99.99
2018-06-10T05:25:31.140Z,99.99
2018-06-10T05:25:56.638Z,99.99
2018-06-10T05:27:00.216Z,99.99
2018-06-10T05:27:25.732Z,99.99
2018-06-10T05:27:51.218Z,99.99
2018-06-10T05:28:16.726Z,99.99
2018-06-10T05:28:42.170Z,99.99
2018-06-10T05:29:07.666Z,99.99
2018-06-10T05:29:33.152Z,99.99
2018-06-10T05:29:58.649Z,99.99
2018-06-10T05:30:24.173Z,99.99
2018-06-10T05:30:49.683Z,99.99
2018-06-10T05:31:15.203Z,99.99
2018-06-10T05:31:40.699Z,99.99
2018-06-10T05:32:06.205Z,99.99
2018-06-10T05:32:31.696Z,99.99
2018-06-10T05:32:57.211Z,99.99
2018-06-10T05:33:22.696Z,99.99
2018-06-10T05:33:48.189Z,99.99
2018-06-10T05:34:13.658Z,99.99
2018-06-10T05:34:39.169Z,99.99
2018-06-10T05:35:04.670Z,99.99
2018-06-10T05:35:30.169Z,99.99
2018-06-10T05:35:55.638Z,99.99
2018-06-10T05:36:21.141Z,99.99
2018-06-10T05:36:46.637Z,99.99
2018-06-10T05:37:45.168Z,99.99
2018-06-10T05:38:10.664Z,99.99
2018-06-10T05:38:36.168Z,99.99
2018-06-10T05:39:01.638Z,99.99
2018-06-10T05:39:27.137Z,99.99
2018-06-10T05:39:52.627Z,99.99
2018-06-10T05:40:18.129Z,99.99
2018-06-10T05:40:43.619Z,99.99
2018-06-10T05:41:09.119Z,99.99
2018-06-10T05:41:34.607Z,99.99
2018-06-10T05:42:00.106Z,99.99
2018-06-10T05:42:25.602Z,99.99
2018-06-10T05:42:51.107Z,99.99
2018-06-10T05:43:16.583Z,99.99
2018-06-10T05:43:42.079Z,99.99
2018-06-10T05:44:07.583Z,99.99
2018-06-10T05:44:33.073Z,99.99
2018-06-10T05:44:58.613Z,99.99
2018-06-10T05:45:24.065Z,99.99
2018-06-10T05:45:49.561Z,99.99
2018-06-10T05:46:15.072Z,99.99
2018-06-10T05:46:40.524Z,99.99
2018-06-10T05:47:06.030Z,99.99
2018-06-10T05:47:31.527Z,99.99
2018-06-10T05:47:57.008Z,99.99
2018-06-10T05:48:22.530Z,99.99
2018-06-10T05:48:48.038Z,99.99
2018-06-10T05:49:13.521Z,99.99
2018-06-10T05:49:38.980Z,99.99
2018-06-10T05:50:04.482Z,99.99
2018-06-10T05:50:29.959Z,99.99
2018-06-10T05:50:55.470Z,99.99
2018-06-10T05:51:21.019Z,99.99
2018-06-10T05:51:46.447Z,99.99
2018-06-10T05:52:11.940Z,99.99
2018-06-10T05:52:37.437Z,99.99
2018-06-10T05:53:02.939Z,99.99
2018-06-10T05:53:28.459Z,99.99
2018-06-10T05:53:53.961Z,99.99
2018-06-10T05:54:19.481Z,99.99
2018-06-10T05:54:44.962Z,99.99
2018-06-10T05:55:10.489Z,99.99
2018-06-10T05:55:35.980Z,99.99
2018-06-10T05:56:01.484Z,99.99
2018-06-10T05:56:26.947Z,99.99
2018-06-10T05:56:52.447Z,99.99
2018-06-10T05:57:17.964Z,99.99
2018-06-10T05:57:43.480Z,99.99
2018-06-10T05:58:08.991Z,99.99
2018-06-10T05:58:34.503Z,99.99
2018-06-10T05:59:00.015Z,99.99
2018-06-10T05:59:25.497Z,99.99
2018-06-10T05:59:51.005Z,99.99
2018-06-10T06:00:16.515Z,99.99
2018-06-10T06:00:42.045Z,99.99
2018-06-10T06:01:07.519Z,99.99
2018-06-10T06:01:33.011Z,99.99
2018-06-10T06:01:58.526Z,99.99
2018-06-10T06:02:24.002Z,99.99
2018-06-10T06:02:49.493Z,99.99
2018-06-10T06:03:14.996Z,99.99
2018-06-10T06:03:40.481Z,99.99
2018-06-10T06:04:05.978Z,99.99
2018-06-10T06:04:31.494Z,99.99
2018-06-10T06:04:56.993Z,99.99
2018-06-10T06:05:22.458Z,99.99
2018-06-10T06:05:47.949Z,99.99
2018-06-10T06:06:13.446Z,99.99
2018-06-10T06:06:38.932Z,99.99
2018-06-10T06:07:04.395Z,99.99
2018-06-10T06:07:29.880Z,99.99
2018-06-10T06:07:55.348Z,99.99
2018-06-10T06:08:20.837Z,99.99
2018-06-10T06:08:46.296Z,99.99
2018-06-10T06:09:11.781Z,99.99
2018-06-10T06:09:37.290Z,99.99
2018-06-10T06:10:02.769Z,99.99
2018-06-10T06:10:28.259Z,99.99
2018-06-10T06:10:53.756Z,99.99
2018-06-10T06:11:19.257Z,99.99
2018-06-10T06:11:44.759Z,99.99
2018-06-10T06:12:10.254Z,99.99
2018-06-10T06:12:35.765Z,99.99
2018-06-10T06:13:44.454Z,99.99
2018-06-10T06:14:09.955Z,99.99
2018-06-10T06:14:35.459Z,99.99
2018-06-10T06:15:00.949Z,99.99
2018-06-10T06:15:26.476Z,99.99
2018-06-10T06:15:51.971Z,99.99
2018-06-10T06:16:17.448Z,99.99
2018-06-10T06:16:42.934Z,99.99
2018-06-10T06:17:08.454Z,99.99
2018-06-10T06:17:33.959Z,99.99
2018-06-10T06:17:59.449Z,99.99
2018-06-10T06:18:24.961Z,99.99
2018-06-10T06:18:50.446Z,99.99
2018-06-10T06:19:15.981Z,99.99
2018-06-10T06:19:41.441Z,99.99
2018-06-10T06:20:06.929Z,99.99
2018-06-10T06:20:32.432Z,99.99
2018-06-10T06:20:57.894Z,99.99
2018-06-10T06:21:23.396Z,99.99
2018-06-10T06:21:48.914Z,99.99
2018-06-10T06:22:14.406Z,99.99
2018-06-10T06:22:39.889Z,99.99
2018-06-10T06:23:05.380Z,99.99
2018-06-10T06:23:30.886Z,99.99
2018-06-10T06:23:56.381Z,99.99
2018-06-10T06:24:21.896Z,99.99
2018-06-10T06:24:47.399Z,99.99
2018-06-10T06:25:12.907Z,99.99
2018-06-10T06:25:38.395Z,99.99
2018-06-10T06:26:03.955Z,99.99
2018-06-10T06:26:29.453Z,99.99
2018-06-10T06:26:55.035Z,99.99
2018-06-10T06:27:20.968Z,99.99
2018-06-10T06:27:46.505Z,99.99
2018-06-10T06:28:50.144Z,99.99
2018-06-10T06:29:16.510Z,99.99
2018-06-10T06:29:42.024Z,99.99
2018-06-10T06:30:07.529Z,99.99
2018-06-10T06:30:33.065Z,99.99
2018-06-10T06:30:58.558Z,99.99
2018-06-10T06:31:24.114Z,99.99
2018-06-10T06:31:49.622Z,99.99
2018-06-10T06:32:15.129Z,99.99
2018-06-10T06:32:40.644Z,99.99
2018-06-10T06:33:34.073Z,99.99
2018-06-10T06:33:59.611Z,99.99
2018-06-10T06:34:25.089Z,99.99
2018-06-10T06:34:50.634Z,99.99
2018-06-10T06:35:16.194Z,99.99
2018-06-10T06:35:41.713Z,99.99
2018-06-10T06:36:07.220Z,99.99
2018-06-10T06:36:32.732Z,99.99
2018-06-10T06:36:58.216Z,99.99
2018-06-10T06:37:23.690Z,99.99
2018-06-10T06:37:49.184Z,99.99
2018-06-10T06:38:14.700Z,99.99
2018-06-10T06:38:40.195Z,99.99
2018-06-10T06:39:05.679Z,99.99
2018-06-10T06:39:31.218Z,99.99
2018-06-10T06:39:56.735Z,99.99
2018-06-10T06:40:22.237Z,99.99
2018-06-10T06:40:47.757Z,99.99
2018-06-10T06:41:13.244Z,99.99
2018-06-10T06:41:38.724Z,99.99
2018-06-10T06:42:04.210Z,99.99
2018-06-10T06:42:29.745Z,99.99
2018-06-10T06:42:55.253Z,99.99
2018-06-10T06:43:20.816Z,99.99
2018-06-10T06:43:46.252Z,99.99
2018-06-10T06:44:11.756Z,99.99
2018-06-10T06:44:37.262Z,99.99
2018-06-10T06:45:02.733Z,99.99
2018-06-10T06:45:28.234Z,99.99
2018-06-10T06:45:53.730Z,99.99
2018-06-10T06:46:19.216Z,99.99
2018-06-10T06:46:44.738Z,99.99
2018-06-10T06:47:10.265Z,99.99
2018-06-10T06:47:35.738Z,99.99
2018-06-10T06:48:01.241Z,99.99
2018-06-10T06:48:26.735Z,99.99
2018-06-10T06:48:52.219Z,99.99
2018-06-10T06:49:17.702Z,99.99
2018-06-10T06:49:43.206Z,99.99
2018-06-10T06:50:08.702Z,99.99
2018-06-10T06:50:34.189Z,99.99
2018-06-10T06:50:59.680Z,99.99
2018-06-10T06:51:25.162Z,99.99
2018-06-10T06:51:50.663Z,99.99
2018-06-10T06:52:16.156Z,99.99
2018-06-10T06:52:41.647Z,99.99
2018-06-10T06:53:07.184Z,99.99
2018-06-10T06:53:32.716Z,99.99
2018-06-10T06:53:58.210Z,99.99
2018-06-10T06:54:23.709Z,99.99
2018-06-10T06:54:49.182Z,99.99
2018-06-10T06:55:14.699Z,99.99
2018-06-10T06:55:40.215Z,99.99
2018-06-10T06:56:05.740Z,99.99
2018-06-10T06:56:31.231Z,99.99
2018-06-10T06:56:56.747Z,99.99
2018-06-10T06:57:22.225Z,99.99
2018-06-10T06:57:47.755Z,99.99
2018-06-10T06:58:13.222Z,99.99
2018-06-10T06:58:38.720Z,99.99
2018-06-10T06:59:04.237Z,99.99
2018-06-10T06:59:29.817Z,99.99
2018-06-10T06:59:55.319Z,99.99
2018-06-10T07:00:20.928Z,99.99
2018-06-10T07:00:46.453Z,99.99
2018-06-10T07:01:11.932Z,99.99
2018-06-10T07:01:37.387Z,99.99
2018-06-10T07:02:02.945Z,99.99
2018-06-10T07:02:28.418Z,99.99
2018-06-10T07:02:53.919Z,99.99
2018-06-10T07:03:19.412Z,99.99
2018-06-10T07:03:44.883Z,99.99
2018-06-10T07:04:10.394Z,99.99
2018-06-10T07:04:35.845Z,99.99
2018-06-10T07:05:01.310Z,99.99
2018-06-10T07:05:26.771Z,99.99
2018-06-10T07:05:52.293Z,99.99
2018-06-10T07:06:17.771Z,99.99
2018-06-10T07:06:43.207Z,99.99
2018-06-10T07:07:08.716Z,99.99
2018-06-10T07:07:34.161Z,99.99
2018-06-10T07:07:59.740Z,99.99
2018-06-10T07:08:25.144Z,99.99
2018-06-10T07:08:50.668Z,99.99
2018-06-10T07:09:16.182Z,99.99
2018-06-10T07:09:41.878Z,99.99
2018-06-10T07:10:07.391Z,99.99
2018-06-10T07:10:32.854Z,99.99
2018-06-10T07:10:58.359Z,99.99
2018-06-10T07:11:23.862Z,99.99
2018-06-10T07:11:49.368Z,99.99
2018-06-10T07:12:14.883Z,99.99
2018-06-10T07:12:40.449Z,99.99
2018-06-10T07:13:05.918Z,99.99
2018-06-10T07:13:31.396Z,99.99
2018-06-10T07:13:56.899Z,99.99
2018-06-10T07:14:22.410Z,99.99
2018-06-10T07:14:47.890Z,99.99
2018-06-10T07:15:13.438Z,99.99
2018-06-10T07:15:38.944Z,99.99
2018-06-10T07:16:04.397Z,99.99
2018-06-10T07:16:29.912Z,99.99
2018-06-10T07:16:55.426Z,99.99
2018-06-10T07:17:20.909Z,99.99
2018-06-10T07:17:46.408Z,99.99
2018-06-10T07:18:11.903Z,99.99
2018-06-10T07:18:37.392Z,99.99
2018-06-10T07:19:02.910Z,99.99
2018-06-10T07:19:28.402Z,99.99
2018-06-10T07:19:53.922Z,99.99
2018-06-10T07:20:19.421Z,99.99
2018-06-10T07:20:44.954Z,99.99
2018-06-10T07:21:10.469Z,99.99
2018-06-10T07:21:35.994Z,99.99
2018-06-10T07:22:01.474Z,99.99
2018-06-10T07:23:15.300Z,99.99
2018-06-10T07:23:40.815Z,99.99
2018-06-10T07:24:06.298Z,99.99
2018-06-10T07:24:31.786Z,99.99
2018-06-10T07:24:57.289Z,99.99
2018-06-10T07:25:22.783Z,99.99
2018-06-10T07:25:48.302Z,99.99
2018-06-10T07:26:13.793Z,99.99
2018-06-10T07:26:39.269Z,99.99
2018-06-10T07:27:04.771Z,99.99
2018-06-10T07:27:30.230Z,99.99
2018-06-10T07:27:55.733Z,99.99
2018-06-10T07:28:21.241Z,99.99
2018-06-10T07:28:46.779Z,99.99
2018-06-10T07:29:12.218Z,99.99
2018-06-10T07:29:37.726Z,99.99
2018-06-10T07:30:03.241Z,99.99
2018-06-10T07:30:28.808Z,99.99
2018-06-10T07:30:54.332Z,99.99
2018-06-10T07:31:19.809Z,99.99
2018-06-10T07:31:45.319Z,99.99
2018-06-10T07:32:10.794Z,99.99
2018-06-10T07:32:36.323Z,99.99
2018-06-10T07:33:01.822Z,99.99
2018-06-10T07:33:27.355Z,99.99
2018-06-10T07:33:52.781Z,99.99
2018-06-10T07:34:18.307Z,99.99
2018-06-10T07:34:43.830Z,99.99
2018-06-10T07:35:09.331Z,99.99
2018-06-10T07:35:34.859Z,99.99
2018-06-10T07:36:00.317Z,99.99
2018-06-10T07:36:25.822Z,99.99
2018-06-10T07:36:51.326Z,99.99
2018-06-10T07:37:16.850Z,99.99
2018-06-10T07:37:42.386Z,99.99
2018-06-10T07:38:07.876Z,99.99
2018-06-10T07:38:33.384Z,99.99
2018-06-10T07:38:58.860Z,99.99
2018-06-10T07:39:24.378Z,99.99
2018-06-10T07:39:49.951Z,99.99
2018-06-10T07:40:15.498Z,99.99
2018-06-10T07:40:41.071Z,99.99
2018-06-10T07:41:06.470Z,99.99
2018-06-10T07:41:31.969Z,99.99
2018-06-10T07:41:57.459Z,99.99
2018-06-10T07:42:22.996Z,99.99
2018-06-10T07:42:48.479Z,99.99
2018-06-10T07:43:14.011Z,99.99
2018-06-10T07:43:39.498Z,99.99
2018-06-10T07:44:04.991Z,99.99
2018-06-10T07:44:30.455Z,99.99
2018-06-10T07:44:55.939Z,99.99
2018-06-10T07:45:21.416Z,99.99
2018-06-10T07:45:46.865Z,99.99
2018-06-10T07:46:12.383Z,99.99
2018-06-10T07:46:37.879Z,99.99
2018-06-10T07:47:03.371Z,99.99
2018-06-10T07:47:28.877Z,99.99
2018-06-10T07:47:54.410Z,99.99
2018-06-10T07:48:19.979Z,99.99
2018-06-10T07:48:45.458Z,99.99
2018-06-10T07:49:10.977Z,99.99
2018-06-10T07:49:36.468Z,99.99
2018-06-10T07:50:01.968Z,99.99
2018-06-10T07:50:27.492Z,99.99
2018-06-10T07:50:52.983Z,99.99
2018-06-10T07:51:18.492Z,99.99
2018-06-10T07:51:44.008Z,99.99
2018-06-10T07:52:09.525Z,99.99
2018-06-10T07:52:35.033Z,99.99
2018-06-10T07:53:00.510Z,99.99
2018-06-10T07:53:26.005Z,99.99
2018-06-10T07:53:51.468Z,99.99
2018-06-10T07:54:16.975Z,99.99
2018-06-10T07:54:42.433Z,99.99
2018-06-10T07:55:07.923Z,99.99
2018-06-10T07:55:33.396Z,99.99
2018-06-10T07:55:58.850Z,99.99
2018-06-10T07:56:24.384Z,99.99
2018-06-10T07:56:49.897Z,99.99
2018-06-10T07:58:03.670Z,99.99
2018-06-10T07:58:29.187Z,99.99
2018-06-10T07:58:54.697Z,99.99
2018-06-10T07:59:20.185Z,99.99
2018-06-10T07:59:45.703Z,99.99
2018-06-10T08:00:11.375Z,99.99
2018-06-10T08:00:36.739Z,99.99
2018-06-10T08:01:02.257Z,99.99
2018-06-10T08:01:27.785Z,99.99
2018-06-10T08:01:53.295Z,99.99
2018-06-10T08:02:18.829Z,99.99
2018-06-10T08:02:44.331Z,99.99
2018-06-10T08:03:09.806Z,99.99
2018-06-10T08:03:35.318Z,99.99
2018-06-10T08:04:00.828Z,99.99
2018-06-10T08:04:26.327Z,99.99
2018-06-10T08:04:51.869Z,99.99
2018-06-10T08:05:17.383Z,99.99
2018-06-10T08:05:42.890Z,99.99
2018-06-10T08:06:08.364Z,99.99
2018-06-10T08:06:33.865Z,99.99
2018-06-10T08:06:59.353Z,99.99
2018-06-10T08:07:24.857Z,99.99
2018-06-10T08:07:50.348Z,99.99
2018-06-10T08:08:15.888Z,99.99
2018-06-10T08:08:41.378Z,99.99
2018-06-10T08:09:06.884Z,99.99
2018-06-10T08:09:32.394Z,99.99
2018-06-10T08:09:57.889Z,99.99
2018-06-10T08:10:23.397Z,99.99
2018-06-10T08:10:48.886Z,99.99
2018-06-10T08:11:14.360Z,99.6
2018-06-10T08:11:39.952Z,98.54
2018-06-10T08:12:05.446Z,98.92
2018-06-10T08:12:31.040Z,99.4
2018-06-10T08:12:56.528Z,99.11
2018-06-10T08:13:22.050Z,99.21
2018-06-10T08:13:47.556Z,99.21
2018-06-10T08:14:13.043Z,98.44
2018-06-10T08:14:38.544Z,98.82
2018-06-10T08:15:04.096Z,98.82
2018-06-10T08:15:29.651Z,99.4
2018-06-10T08:15:55.184Z,99.4
2018-06-10T08:16:20.721Z,99.3
2018-06-10T08:16:46.219Z,99.4
2018-06-10T08:17:11.714Z,99.35
2018-06-10T08:17:37.262Z,99.45
2018-06-10T08:18:02.749Z,99.45
2018-06-10T08:18:28.237Z,99.45
2018-06-10T08:18:53.805Z,99.65
2018-06-10T08:19:19.323Z,98.68
2018-06-10T08:19:44.842Z,98.49
2018-06-10T08:20:10.357Z,98
2018-06-10T08:20:35.875Z,97.52
2018-06-10T08:21:01.360Z,98.2
2018-06-10T08:21:26.904Z,97.52
2018-06-10T08:21:52.390Z,98.29
2018-06-10T08:22:17.856Z,98.2
2018-06-10T08:22:43.395Z,97.81
2018-06-10T08:23:08.904Z,97.91
2018-06-10T08:23:34.379Z,97.52
2018-06-10T08:23:59.893Z,97.33
2018-06-10T08:24:25.385Z,96.84
2018-06-10T08:24:50.905Z,95.59
2018-06-10T08:25:16.439Z,96.08
2018-06-10T08:25:41.948Z,95.98
2018-06-10T08:26:07.450Z,95.31
2018-06-10T08:26:32.998Z,95.5
2018-06-10T08:26:58.445Z,95.31
2018-06-10T08:27:23.944Z,95.01
2018-06-10T08:27:49.450Z,95.21
2018-06-10T08:28:14.937Z,95.01
2018-06-10T08:28:40.433Z,95.98
2018-06-10T08:29:05.940Z,96.27
2018-06-10T08:29:31.418Z,96.46
2018-06-10T08:29:56.919Z,95.98
2018-06-10T08:30:22.431Z,95.69
2018-06-10T08:30:47.935Z,95.98
2018-06-10T08:31:13.409Z,95.69
2018-06-10T08:31:38.908Z,96.27
2018-06-10T08:32:04.430Z,96.46
2018-06-10T08:32:29.951Z,96.66
2018-06-10T08:32:55.467Z,96.27
2018-06-10T08:33:20.982Z,96.84
2018-06-10T08:33:46.484Z,96.56
2018-06-10T08:34:11.995Z,96.84
2018-06-10T08:34:37.482Z,97.33
2018-06-10T08:35:02.982Z,97.04
2018-06-10T08:35:28.505Z,97.04
2018-06-10T08:35:53.986Z,97.24
2018-06-10T08:37:02.769Z,97.04
2018-06-10T08:37:28.333Z,96.75
2018-06-10T08:37:53.807Z,96.66
2018-06-10T08:38:19.316Z,96.36
2018-06-10T08:38:44.809Z,96.66
2018-06-10T08:39:10.385Z,96.56
2018-06-10T08:39:35.854Z,95.88
2018-06-10T08:40:01.362Z,94.92
2018-06-10T08:40:26.871Z,95.88
2018-06-10T08:40:52.402Z,97.04
2018-06-10T08:41:17.872Z,96.36
2018-06-10T08:41:43.376Z,96.27
2018-06-10T08:42:08.852Z,95.79
2018-06-10T08:42:34.354Z,96.75
2018-06-10T08:42:59.845Z,95.98
2018-06-10T08:43:25.372Z,95.79
2018-06-10T08:43:50.887Z,96.36
2018-06-10T08:44:16.327Z,96.36
2018-06-10T08:44:41.865Z,95.69
2018-06-10T08:45:07.356Z,95.98
2018-06-10T08:45:32.847Z,95.79
2018-06-10T08:45:58.400Z,96.08
2018-06-10T08:46:23.912Z,95.69
2018-06-10T08:46:49.424Z,95.79
2018-06-10T08:47:14.908Z,95.69
2018-06-10T08:47:40.393Z,95.79
2018-06-10T08:48:05.880Z,95.98
2018-06-10T08:48:31.383Z,95.4
2018-06-10T08:48:56.872Z,95.79
2018-06-10T08:49:22.349Z,96.36
2018-06-10T08:49:47.866Z,96.84
2018-06-10T08:50:13.391Z,96.36
2018-06-10T08:50:38.946Z,96.75
2018-06-10T08:51:04.379Z,96.75
2018-06-10T08:51:29.841Z,96.46
2018-06-10T08:51:55.367Z,96.75
2018-06-10T08:52:20.849Z,97.04
2018-06-10T08:52:46.376Z,97.24
2018-06-10T08:53:11.861Z,96.46
2018-06-10T08:54:05.344Z,95.69
2018-06-10T08:54:30.849Z,95.69
2018-06-10T08:54:56.317Z,96.08
2018-06-10T08:55:21.834Z,95.26
2018-06-10T08:55:47.344Z,95.21
2018-06-10T08:56:12.844Z,95.5
2018-06-10T08:56:38.325Z,95.4
2018-06-10T08:57:03.857Z,95.4
2018-06-10T08:57:29.332Z,95.21
2018-06-10T08:57:54.808Z,95.36
2018-06-10T08:58:20.300Z,94.92
2018-06-10T08:58:45.793Z,95.69
2018-06-10T08:59:11.298Z,95.26
2018-06-10T08:59:36.821Z,94.96
2018-06-10T09:00:02.336Z,95.4
2018-06-10T09:00:27.852Z,95.54
2018-06-10T09:00:53.341Z,96.22
2018-06-10T09:01:18.797Z,96.41
2018-06-10T09:01:44.316Z,96.7
2018-06-10T09:02:09.812Z,96.8
2018-06-10T09:02:35.338Z,97.33
2018-06-10T09:03:00.830Z,97.04
2018-06-10T09:03:26.326Z,96.84
2018-06-10T09:03:51.821Z,97.24
2018-06-10T09:04:17.318Z,96.56
2018-06-10T09:04:42.848Z,96.46
2018-06-10T09:05:08.356Z,95.79
2018-06-10T09:05:33.853Z,95.88
2018-06-10T09:05:59.346Z,95.88
2018-06-10T09:06:24.838Z,96.56
2018-06-10T09:07:18.293Z,96.84
2018-06-10T09:07:43.796Z,96.46
2018-06-10T09:08:09.288Z,97.04
2018-06-10T09:08:34.845Z,96.27
2018-06-10T09:09:00.316Z,96.66
2018-06-10T09:09:25.831Z,95.88
2018-06-10T09:09:51.348Z,95.69
2018-06-10T09:10:16.885Z,95.5
2018-06-10T09:10:42.389Z,95.5
2018-06-10T09:11:07.890Z,95.98
2018-06-10T09:11:33.382Z,95.31
2018-06-10T09:11:58.901Z,95.35
2018-06-10T09:12:24.406Z,94.96
2018-06-10T09:12:49.953Z,95.93
2018-06-10T09:13:15.461Z,95.45
2018-06-10T09:13:40.971Z,95.54
2018-06-10T09:14:06.441Z,94.1
2018-06-10T09:14:31.944Z,93.62
2018-06-10T09:14:57.449Z,93.62
2018-06-10T09:15:22.962Z,94.2
2018-06-10T09:15:48.420Z,94.29
2018-06-10T09:16:13.903Z,94.2
2018-06-10T09:16:39.396Z,93.8
2018-06-10T09:17:04.934Z,93.9
2018-06-10T09:17:30.451Z,93.32
2018-06-10T09:17:55.962Z,93.23
2018-06-10T09:18:21.504Z,93.13
2018-06-10T09:18:47.057Z,93.04
2018-06-10T09:19:12.519Z,92.55
2018-06-10T09:19:37.983Z,92.46
2018-06-10T09:20:03.513Z,92.55
2018-06-10T09:20:28.986Z,91.97
2018-06-10T09:20:54.492Z,92.36
2018-06-10T09:21:19.995Z,92.07
2018-06-10T09:21:45.495Z,92.94
2018-06-10T09:22:11.008Z,93.47
2018-06-10T09:22:36.484Z,93.13
2018-06-10T09:23:01.965Z,92.5
2018-06-10T09:23:27.470Z,92.02
2018-06-10T09:23:52.977Z,92.69
2018-06-10T09:24:18.498Z,92.41
2018-06-10T09:24:43.995Z,91.63
2018-06-10T09:25:09.517Z,91.63
2018-06-10T09:25:34.999Z,91.25
2018-06-10T09:26:00.531Z,91.35
2018-06-10T09:27:04.164Z,91.44
2018-06-10T09:27:29.689Z,91.67
2018-06-10T09:27:55.185Z,91.97
2018-06-10T09:28:20.729Z,91.87
2018-06-10T09:28:46.307Z,91.67
2018-06-10T09:29:11.793Z,91.77
2018-06-10T09:29:37.373Z,91.29
2018-06-10T09:30:02.961Z,91.63
2018-06-10T09:30:28.470Z,92.21
2018-06-10T09:30:54.077Z,91.14
2018-06-10T09:31:19.797Z,90.17
2018-06-10T09:31:45.365Z,89.83
2018-06-10T09:32:11.083Z,88.87
2018-06-10T09:32:36.700Z,89.06
2018-06-10T09:33:02.418Z,87.61
2018-06-10T09:33:28.037Z,88.19
2018-06-10T09:33:53.773Z,88.67
2018-06-10T09:34:19.380Z,88.67
2018-06-10T09:34:45.037Z,88.19
2018-06-10T09:35:10.585Z,88.67
2018-06-10T09:35:36.088Z,88.29
2018-06-10T09:36:01.575Z,88.39
2018-06-10T09:36:27.097Z,87.03
2018-06-10T09:36:52.913Z,87.51
2018-06-10T09:37:18.689Z,86.93
2018-06-10T09:37:44.521Z,87.23
2018-06-10T09:38:10.109Z,87.23
2018-06-10T09:38:35.686Z,87.51
2018-06-10T09:39:01.373Z,87.18
2018-06-10T09:39:26.905Z,86.89
2018-06-10T09:39:52.523Z,86.89
2018-06-10T09:40:18.188Z,86.99
2018-06-10T09:40:43.702Z,86.89
2018-06-10T09:41:09.196Z,87.08
2018-06-10T09:41:34.729Z,86.99
2018-06-10T09:42:00.276Z,86.89
2018-06-10T09:42:25.913Z,87.18
2018-06-10T09:42:51.597Z,86.89
2018-06-10T09:43:17.078Z,87.66
2018-06-10T09:43:42.595Z,87.66
2018-06-10T09:44:08.208Z,87.57
2018-06-10T09:44:33.817Z,88.15
2018-06-10T09:44:59.497Z,88.63
2018-06-10T09:45:25.098Z,88.39
2018-06-10T09:45:50.757Z,88.48
2018-06-10T09:46:16.413Z,88.48
2018-06-10T09:46:41.936Z,86.25
2018-06-10T09:47:07.603Z,86.65
2018-06-10T09:47:33.414Z,86.65
2018-06-10T09:47:59.275Z,86.45
2018-06-10T09:48:24.950Z,87.23
2018-06-10T09:48:50.765Z,85.77
2018-06-10T09:49:59.605Z,86.83
2018-06-10T09:50:25.241Z,86.83